Orbital elements of FENGYUN 1C DEB
| Launched | 9 May 1999 |
| Flight ended | – |
| Launch site | Taiyuan Space Center, PRC |
| Owner | People's Republic of China |
| NORAD ID | 30212 |
| Date fetched |
Epoch osculation |
Inc. [°] |
Ecc. | RA asc node [hr] |
Arg Peri. [°] |
Mean anom [°] |
Mean motion [rev/day] |
Abs. mag |
| Date fetched |
Epoch osculation |
Inc. [°] |
Ecc. | RA asc node [hr] |
Arg Peri. [°] |
Mean anom [°] |
Mean motion [rev/day] |
Abs. mag |
| 2026 May 03 17:57 | 2026 Apr 30 14:09:44 | 99.4432 | 0.00963 | 23.6574 | 220.4837 | 138.9131 | 13.97209 | – |
| 2026 May 02 17:57 | 2026 Apr 30 14:09:44 | 99.4432 | 0.00963 | 23.6574 | 220.4837 | 138.9131 | 13.97209 | – |
| 2026 May 01 17:56 | 2026 Apr 30 14:09:44 | 99.4432 | 0.00963 | 23.6574 | 220.4837 | 138.9131 | 13.97209 | – |
| 2026 Apr 30 17:56 | 2026 Apr 30 14:09:44 | 99.4432 | 0.00963 | 23.6574 | 220.4837 | 138.9131 | 13.97209 | – |
| 2026 Apr 29 17:57 | 2026 Apr 24 03:29:01 | 99.4433 | 0.00961 | 23.2161 | 238.0850 | 138.9131 | 13.97209 | – |
| 2026 Apr 28 17:56 | 2026 Apr 24 03:29:01 | 99.4433 | 0.00961 | 23.2161 | 238.0850 | 138.9131 | 13.97209 | – |
| 2026 Apr 27 17:58 | 2026 Apr 24 03:29:01 | 99.4433 | 0.00961 | 23.2161 | 238.0850 | 138.9131 | 13.97209 | – |
| 2026 Apr 26 17:58 | 2026 Apr 24 03:29:01 | 99.4433 | 0.00961 | 23.2161 | 238.0850 | 138.9131 | 13.97209 | – |
| 2026 Apr 25 17:58 | 2026 Apr 24 03:29:01 | 99.4433 | 0.00961 | 23.2161 | 238.0850 | 138.9131 | 13.97209 | – |
| 2026 Apr 24 17:59 | 2026 Apr 24 03:29:01 | 99.4433 | 0.00961 | 23.2161 | 238.0850 | 138.9131 | 13.97209 | – |
| 2026 Apr 23 17:57 | 2026 Apr 19 01:27:32 | 99.4437 | 0.00963 | 22.8680 | 252.0122 | 138.9131 | 13.97209 | – |
| 2026 Apr 22 17:57 | 2026 Apr 19 01:27:32 | 99.4437 | 0.00963 | 22.8680 | 252.0122 | 138.9131 | 13.97209 | – |
| 2026 Apr 21 17:57 | 2026 Apr 19 01:27:32 | 99.4437 | 0.00963 | 22.8680 | 252.0122 | 138.9131 | 13.97209 | – |
| 2026 Apr 20 17:57 | 2026 Apr 19 01:27:32 | 99.4437 | 0.00963 | 22.8680 | 252.0122 | 138.9131 | 13.97209 | – |
| 2026 Apr 19 17:58 | 2026 Apr 19 01:27:32 | 99.4437 | 0.00963 | 22.8680 | 252.0122 | 138.9131 | 13.97209 | – |
| 2026 Apr 18 17:56 | 2026 Apr 13 01:05:29 | 99.4449 | 0.00966 | 22.4560 | 268.5004 | 138.9131 | 13.97209 | – |
| 2026 Apr 16 17:57 | 2026 Apr 13 01:05:29 | 99.4449 | 0.00966 | 22.4560 | 268.5004 | 138.9131 | 13.97209 | – |
| 2026 Apr 14 17:57 | 2026 Apr 13 01:05:29 | 99.4449 | 0.00966 | 22.4560 | 268.5004 | 138.9131 | 13.97209 | – |
| 2026 Apr 13 17:57 | 2026 Apr 13 01:05:29 | 99.4449 | 0.00966 | 22.4560 | 268.5004 | 138.9131 | 13.97209 | – |
| 2026 Apr 12 17:57 | 2026 Apr 08 14:32:05 | 99.4457 | 0.00967 | 22.1520 | 280.7004 | 138.9131 | 13.97209 | – |
| 2026 Apr 11 17:57 | 2026 Apr 08 14:32:05 | 99.4457 | 0.00967 | 22.1520 | 280.7004 | 138.9131 | 13.97209 | – |
| 2026 Apr 10 17:58 | 2026 Apr 08 14:32:05 | 99.4457 | 0.00967 | 22.1520 | 280.7004 | 138.9131 | 13.97209 | – |
| 2026 Apr 09 18:01 | 2026 Apr 08 14:32:05 | 99.4457 | 0.00967 | 22.1520 | 280.7004 | 138.9131 | 13.97209 | – |
| 2026 Apr 08 17:57 | 2026 Apr 08 14:32:05 | 99.4457 | 0.00967 | 22.1520 | 280.7004 | 138.9131 | 13.97209 | – |
| 2026 Apr 07 17:57 | 2026 Apr 02 03:51:20 | 99.4471 | 0.00968 | 21.7105 | 298.3814 | 138.9131 | 13.97209 | – |
| 2026 Apr 06 17:57 | 2026 Apr 02 03:51:20 | 99.4471 | 0.00968 | 21.7105 | 298.3814 | 138.9131 | 13.97209 | – |